Letiště Václava Havla Praha v létě odbavilo přes 3,8 milionů cestujících

26.09.22 Letiště Praha má za sebou silnou letní sezónu, kterou zvládlo bez větších komplikací. Od června do srpna odbavilo přes 3,8 milionu cestujících, což je sice o třetinu méně než v rekordním roce 2019, nicméně trend je vzrůstající. Od začátku roku do konce srpna pak letištěm prošlo bezmála sedm milionů cestujících. Nejrušnějším dnem byl první červenec, kdy počet odbavených pasažérů překročil hranici 50 tisíc. Celý článek

Společnost Czech Airlines Technics, dceřiná společnost Letiště Praha poskytující služby v oblasti údržby a oprav letadel, má nové vedení.

05.09.22 Novým předsedou je od 1. září Petr Doberský, stávající člen představenstva CSAT. Toho zvolili členové na dnešním mimořádném zasedání. Dosavadní šéf představenstva Pavel Haleš se rozhodl po osmi letech působení v čele CSAT přijmout novou pracovní výzvu. Celý článek

Zprávy

aktualizováno

26.09.22 Celý článek

Všechny zprávy    

Všechny články

Zeptejte se odborníka

Zkušený personál jedné z největších leteckých škol Flying Academy je připraven Vám pomoci s jakýmikoli otázkami týkajícími se letectví.

Zeptejte se

Newsletter

Přihlaste se k odběru novinek.

Aktuální počasí

LKKB
LKKB 261500Z 22009KT 9999 SCT043 16/07 Q1004 NOSIG

LKKV
LKKV 261530Z 20004KT 130V250 CAVOK 12/04 Q1004

LKMT
LKMT 261530Z 22010KT 9999 FEW027 14/10 Q1005 NOSIG

LKPR
LKPR 261530Z 21006KT 150V240 9999 FEW045 15/08 Q1004 NOSIG

LKTB
LKTB 261530Z VRB02KT 9999 FEW046 17/08 Q1005 NOSIG

Briefing

Kurzy měn

AUD AUD 16.59 Kč
EUR EUR 24.64 Kč
GBP GBP 28.21 Kč
HUF HUF 6.08 Kč
CHF CHF 25.80 Kč
USD USD 24.87 Kč